createdAt,value
2023-02-17T00:02:26.292Z,4.03
2023-02-17T00:05:28.874Z,4.11
2023-02-17T00:08:31.179Z,4.10
2023-02-17T00:11:34.316Z,3.96
2023-02-17T00:14:37.026Z,4.08
2023-02-17T00:17:39.715Z,3.98
2023-02-17T00:20:42.187Z,3.98
2023-02-17T00:23:45.757Z,3.79
2023-02-17T00:26:48.575Z,4.00
2023-02-17T00:29:51.216Z,3.94
2023-02-17T00:32:55.682Z,4.12
2023-02-17T00:36:00.139Z,4.29
2023-02-17T00:39:02.772Z,4.30
2023-02-17T00:42:05.072Z,4.36
2023-02-17T00:45:07.892Z,4.26
2023-02-17T00:48:11.009Z,4.22
2023-02-17T00:51:14.899Z,4.27
2023-02-17T00:54:18.044Z,4.38
2023-02-17T00:57:20.883Z,4.36
2023-02-17T01:00:24.469Z,4.35
2023-02-17T01:03:29.369Z,4.27
2023-02-17T01:06:34.580Z,4.26
2023-02-17T01:09:37.270Z,4.21
2023-02-17T01:12:40.062Z,4.29
2023-02-17T01:15:46.012Z,4.10
2023-02-17T01:18:49.496Z,4.22
2023-02-17T01:21:53.854Z,4.25
2023-02-17T01:24:56.358Z,4.32
2023-02-17T01:27:59.329Z,4.32
2023-02-17T01:31:07.814Z,4.25
2023-02-17T01:34:11.452Z,3.97
2023-02-17T01:37:13.852Z,4.34
2023-02-17T01:40:16.928Z,4.25
2023-02-17T01:43:19.325Z,4.05
2023-02-17T01:46:21.774Z,4.29
2023-02-17T01:49:34.467Z,4.38
2023-02-17T01:52:37.164Z,4.36
2023-02-17T01:55:40.458Z,4.46
2023-02-17T01:58:46.505Z,4.48
2023-02-17T02:01:52.522Z,4.48
2023-02-17T02:04:55.664Z,4.32
2023-02-17T02:07:58.183Z,4.24
2023-02-17T02:11:01.251Z,4.22
2023-02-17T02:14:06.978Z,4.21
2023-02-17T02:17:30.030Z,4.19
2023-02-17T02:20:58.097Z,4.18
2023-02-17T02:24:06.018Z,4.14
2023-02-17T02:27:25.525Z,4.30
2023-02-17T02:30:50.822Z,4.05
2023-02-17T02:33:58.024Z,4.00
2023-02-17T02:37:09.187Z,3.99
2023-02-17T02:40:12.107Z,3.93
2023-02-17T02:43:15.814Z,3.99
2023-02-17T02:46:18.196Z,4.19
2023-02-17T02:49:20.596Z,3.93
2023-02-17T02:52:28.300Z,4.06
2023-02-17T02:55:45.594Z,4.02
2023-02-17T02:58:59.642Z,4.04
2023-02-17T03:02:04.992Z,4.10
2023-02-17T03:05:25.890Z,4.19
2023-02-17T03:08:46.523Z,3.96
2023-02-17T03:11:49.671Z,4.03
2023-02-17T03:14:57.413Z,3.95
2023-02-17T03:18:01.267Z,4.05
2023-02-17T03:21:09.768Z,3.96
2023-02-17T03:24:12.228Z,4.05
2023-02-17T03:27:14.647Z,4.12
2023-02-17T03:30:17.310Z,4.13
2023-02-17T03:33:19.735Z,4.14
2023-02-17T03:36:22.096Z,4.10
2023-02-17T03:39:24.598Z,4.10
2023-02-17T03:42:27.766Z,4.08
2023-02-17T03:45:30.189Z,4.03
2023-02-17T03:48:32.683Z,4.08
2023-02-17T03:51:35.100Z,4.00
2023-02-17T03:54:38.512Z,3.89
2023-02-17T03:57:40.885Z,4.03
2023-02-17T04:00:43.442Z,4.19
2023-02-17T04:03:45.740Z,4.06
2023-02-17T04:06:48.209Z,4.01
2023-02-17T04:09:50.471Z,4.14
2023-02-17T04:12:52.774Z,4.23
2023-02-17T04:15:55.597Z,4.39
2023-02-17T04:18:58.010Z,4.41
2023-02-17T04:22:01.048Z,4.34
2023-02-17T04:25:03.678Z,4.36
2023-02-17T04:28:07.290Z,4.16
2023-02-17T04:31:10.106Z,4.49
2023-02-17T04:34:12.607Z,4.39
2023-02-17T04:37:15.066Z,4.49
2023-02-17T04:40:18.270Z,4.34
2023-02-17T04:43:20.846Z,4.29
2023-02-17T04:46:23.330Z,4.19
2023-02-17T04:49:25.874Z,4.31
2023-02-17T04:52:28.675Z,4.24
2023-02-17T04:55:31.770Z,4.48
2023-02-17T04:58:34.157Z,4.40
2023-02-17T05:01:36.490Z,4.25
2023-02-17T05:04:38.865Z,4.21
2023-02-17T05:07:43.983Z,3.88
2023-02-17T05:10:46.450Z,4.21
2023-02-17T05:13:49.065Z,4.45
2023-02-17T05:16:52.801Z,4.17
2023-02-17T05:19:55.328Z,4.39
2023-02-17T05:22:57.705Z,4.21
2023-02-17T05:26:00.020Z,4.22
2023-02-17T05:29:02.548Z,4.28
2023-02-17T05:32:04.937Z,4.36
2023-02-17T05:35:07.840Z,4.41
2023-02-17T05:38:10.268Z,4.48
2023-02-17T05:41:12.620Z,4.42
2023-02-17T05:44:15.060Z,4.40
2023-02-17T05:47:17.868Z,4.23
2023-02-17T05:50:20.251Z,4.41
2023-02-17T05:53:24.684Z,4.33
2023-02-17T05:56:27.040Z,4.43
2023-02-17T05:59:29.597Z,4.38
2023-02-17T06:02:32.029Z,4.30
2023-02-17T06:05:34.631Z,4.33
2023-02-17T06:08:37.326Z,4.42
2023-02-17T06:11:40.013Z,4.41
2023-02-17T06:14:42.901Z,4.31
2023-02-17T06:17:45.707Z,4.35
2023-02-17T06:20:49.185Z,4.39
2023-02-17T06:23:51.977Z,4.29
2023-02-17T06:26:54.580Z,4.41
2023-02-17T06:29:57.247Z,4.48
2023-02-17T06:33:00.173Z,4.57
2023-02-17T06:36:03.024Z,4.41
2023-02-17T06:39:05.654Z,4.50
2023-02-17T06:42:08.266Z,4.56
2023-02-17T06:45:11.539Z,4.40
2023-02-17T06:48:14.040Z,4.49
2023-02-17T06:51:16.644Z,4.45
2023-02-17T06:54:18.960Z,4.51
2023-02-17T06:57:22.210Z,4.49
2023-02-17T07:00:25.255Z,4.38
2023-02-17T07:03:27.719Z,4.63
2023-02-17T07:06:30.475Z,4.73
2023-02-17T07:09:34.173Z,4.55
2023-02-17T07:12:36.991Z,4.51
2023-02-17T07:15:39.391Z,4.34
2023-02-17T07:18:43.582Z,4.77
2023-02-17T07:21:46.819Z,4.70
2023-02-17T07:24:49.212Z,4.65
2023-02-17T07:27:52.386Z,4.65
2023-02-17T07:30:55.340Z,4.64
2023-02-17T07:33:58.109Z,4.56
2023-02-17T07:37:00.456Z,4.53
2023-02-17T07:40:03.751Z,4.45
2023-02-17T07:43:06.223Z,4.75
2023-02-17T07:46:10.388Z,4.68
2023-02-17T07:49:15.046Z,4.63
2023-02-17T07:52:18.904Z,4.59
2023-02-17T07:55:22.272Z,4.74
2023-02-17T07:58:26.483Z,4.73
2023-02-17T08:01:28.947Z,4.73
2023-02-17T08:04:32.984Z,4.47
2023-02-17T08:07:35.399Z,4.57
2023-02-17T08:10:57.842Z,4.62
2023-02-17T08:14:00.962Z,4.42
2023-02-17T08:17:03.557Z,4.45
2023-02-17T08:20:09.252Z,4.46
2023-02-17T08:23:12.302Z,4.49
2023-02-17T08:26:15.575Z,4.41
2023-02-17T08:29:20.979Z,4.51
2023-02-17T08:32:23.616Z,4.53
2023-02-17T08:35:26.623Z,4.59
2023-02-17T08:38:30.046Z,4.65
2023-02-17T08:41:35.327Z,4.56
2023-02-17T08:44:38.106Z,4.74
2023-02-17T08:47:40.814Z,4.90
2023-02-17T08:50:43.990Z,4.74
2023-02-17T08:53:48.925Z,4.97
2023-02-17T08:56:51.389Z,4.98
2023-02-17T08:59:55.252Z,4.88
2023-02-17T09:02:58.138Z,4.85
2023-02-17T09:06:00.677Z,5.00
2023-02-17T09:09:05.184Z,4.81
2023-02-17T09:12:08.001Z,4.87
2023-02-17T09:15:10.583Z,4.99
2023-02-17T09:18:13.688Z,5.11
2023-02-17T09:21:17.141Z,5.12
2023-02-17T09:24:20.739Z,5.14
2023-02-17T09:27:23.281Z,5.29
2023-02-17T09:30:25.904Z,5.00
2023-02-17T09:33:28.384Z,4.89
2023-02-17T09:36:39.837Z,5.04
2023-02-17T09:39:42.178Z,5.22
2023-02-17T09:42:45.024Z,5.20
2023-02-17T09:46:22.536Z,5.02
2023-02-17T09:49:40.209Z,5.16
2023-02-17T09:53:04.181Z,5.03
2023-02-17T09:56:09.676Z,5.18
2023-02-17T09:59:17.325Z,4.91
2023-02-17T10:02:37.334Z,5.26
2023-02-17T10:05:52.144Z,5.32
2023-02-17T10:09:22.598Z,5.05
2023-02-17T10:12:28.688Z,5.14
2023-02-17T10:15:42.613Z,5.31
2023-02-17T10:19:11.582Z,5.29
2023-02-17T10:22:18.447Z,5.26
2023-02-17T10:25:27.610Z,5.10
2023-02-17T10:28:49.296Z,5.18
2023-02-17T10:32:08.327Z,5.23
2023-02-17T10:35:23.344Z,5.17
2023-02-17T10:38:28.859Z,5.18
2023-02-17T10:41:35.920Z,5.30
2023-02-17T10:44:39.633Z,5.47
2023-02-17T10:47:42.418Z,5.33
2023-02-17T10:50:46.697Z,5.43
2023-02-17T10:53:50.132Z,5.47
2023-02-17T10:56:55.238Z,5.63
2023-02-17T10:59:58.639Z,5.60
2023-02-17T11:03:01.422Z,5.59
2023-02-17T11:06:06.869Z,5.61
2023-02-17T11:09:34.797Z,5.65
2023-02-17T11:12:41.821Z,5.70
2023-02-17T11:15:46.017Z,5.64
2023-02-17T11:18:48.320Z,5.62
2023-02-17T11:21:53.296Z,5.68
2023-02-17T11:25:01.718Z,5.59
2023-02-17T11:28:27.360Z,5.55
2023-02-17T11:31:32.264Z,5.59
2023-02-17T11:34:40.316Z,5.67
2023-02-17T11:37:43.476Z,5.82
2023-02-17T11:40:58.187Z,5.65
2023-02-17T11:44:00.824Z,5.52
2023-02-17T11:47:24.025Z,5.64
2023-02-17T11:50:41.308Z,5.72
2023-02-17T11:53:52.433Z,5.76
2023-02-17T11:57:08.074Z,5.75
2023-02-17T12:00:22.851Z,5.65
2023-02-17T12:03:57.621Z,5.96
2023-02-17T12:07:48.168Z,5.87
2023-02-17T12:11:00.083Z,5.85
2023-02-17T12:14:18.999Z,5.77
2023-02-17T12:17:27.384Z,5.65
2023-02-17T12:20:54.588Z,5.87
2023-02-17T12:24:06.639Z,5.80
2023-02-17T12:27:27.505Z,5.98
2023-02-17T12:30:48.864Z,5.83
2023-02-17T12:33:59.431Z,5.74
2023-02-17T12:37:02.270Z,5.84
2023-02-17T12:40:08.718Z,5.68
2023-02-17T12:43:32.208Z,5.76
2023-02-17T12:46:40.987Z,5.74
2023-02-17T12:50:06.619Z,5.90
2023-02-17T12:53:16.713Z,5.69
2023-02-17T12:56:34.675Z,5.79
2023-02-17T12:59:41.713Z,5.63
2023-02-17T13:02:44.208Z,5.76
2023-02-17T13:05:49.381Z,5.69
2023-02-17T13:09:01.206Z,5.89
2023-02-17T13:12:12.969Z,5.90
2023-02-17T13:15:58.885Z,5.85
2023-02-17T13:19:08.918Z,5.85
2023-02-17T13:22:24.040Z,5.94
2023-02-17T13:25:30.157Z,5.87
2023-02-17T13:28:38.471Z,5.69
2023-02-17T13:31:58.824Z,5.67
2023-02-17T13:35:24.620Z,5.90
2023-02-17T13:38:32.035Z,5.93
2023-02-17T13:41:48.184Z,5.97
2023-02-17T13:44:51.974Z,6.07
2023-02-17T13:47:57.872Z,5.96
2023-02-17T13:51:10.025Z,6.04
2023-02-17T13:54:13.116Z,6.04
2023-02-17T13:57:28.747Z,6.15
2023-02-17T14:00:32.308Z,6.04
2023-02-17T14:03:42.589Z,6.03
2023-02-17T14:06:45.105Z,6.14
2023-02-17T14:09:54.818Z,5.98
2023-02-17T14:12:57.682Z,6.14
2023-02-17T14:16:01.397Z,6.20
2023-02-17T14:19:11.186Z,6.09
2023-02-17T14:22:31.320Z,6.21
2023-02-17T14:25:37.033Z,6.44
2023-02-17T14:28:39.354Z,6.25
2023-02-17T14:31:50.532Z,6.32
2023-02-17T14:34:53.103Z,6.39
2023-02-17T14:37:56.234Z,6.48
2023-02-17T14:41:01.256Z,6.43
2023-02-17T14:44:03.839Z,6.55
2023-02-17T14:47:06.686Z,6.30
2023-02-17T14:50:09.760Z,6.44
2023-02-17T14:53:27.055Z,6.51
2023-02-17T14:56:42.510Z,6.36
2023-02-17T14:59:45.414Z,6.22
2023-02-17T15:02:48.283Z,6.36
2023-02-17T15:05:52.581Z,6.49
2023-02-17T15:08:55.416Z,6.48
2023-02-17T15:11:58.821Z,6.37
2023-02-17T15:15:01.407Z,6.47
2023-02-17T15:18:04.093Z,6.58
2023-02-17T15:21:18.301Z,6.65
2023-02-17T15:24:29.913Z,6.56
2023-02-17T15:27:33.532Z,6.49
2023-02-17T15:30:37.241Z,6.64
2023-02-17T15:33:39.978Z,6.59
2023-02-17T15:36:42.489Z,6.51
2023-02-17T15:39:44.830Z,6.81
2023-02-17T15:42:51.127Z,6.70
2023-02-17T15:45:53.635Z,6.50
2023-02-17T15:48:55.956Z,6.70
2023-02-17T15:51:58.410Z,6.58
2023-02-17T15:55:00.847Z,6.58
2023-02-17T15:58:05.401Z,6.77
2023-02-17T16:01:13.957Z,6.79
2023-02-17T16:04:16.412Z,7.00
2023-02-17T16:07:19.817Z,6.65
2023-02-17T16:10:27.341Z,6.76
2023-02-17T16:13:29.792Z,6.86
2023-02-17T16:16:33.809Z,6.97
2023-02-17T16:19:36.216Z,6.99
2023-02-17T16:22:38.916Z,7.07
2023-02-17T16:25:43.234Z,7.09
2023-02-17T16:28:45.804Z,6.91
2023-02-17T16:31:49.041Z,6.86
2023-02-17T16:34:52.043Z,6.87
2023-02-17T16:38:01.154Z,6.87
2023-02-17T16:41:03.636Z,7.01
2023-02-17T16:44:07.627Z,7.01
2023-02-17T16:47:19.953Z,6.88
2023-02-17T16:50:32.000Z,6.96
2023-02-17T16:53:34.504Z,6.87
2023-02-17T16:56:40.904Z,6.87
2023-02-17T16:59:43.393Z,6.86
2023-02-17T17:02:46.103Z,7.10
2023-02-17T17:05:49.038Z,6.93
2023-02-17T17:08:52.062Z,7.01
2023-02-17T17:11:58.749Z,7.06
2023-02-17T17:15:01.166Z,7.06
2023-02-17T17:18:06.531Z,7.03
2023-02-17T17:21:12.476Z,7.16
2023-02-17T17:24:15.032Z,7.26
2023-02-17T17:27:17.765Z,7.36
2023-02-17T17:30:22.865Z,7.42
2023-02-17T17:33:25.214Z,7.52
2023-02-17T17:36:41.869Z,7.44
2023-02-17T17:39:44.254Z,7.49
2023-02-17T17:42:46.869Z,7.53
2023-02-17T17:45:52.868Z,7.51
2023-02-17T17:48:56.211Z,7.42
2023-02-17T17:51:58.638Z,7.57
2023-02-17T17:55:01.191Z,7.40
2023-02-17T17:58:03.695Z,7.58
2023-02-17T18:01:06.749Z,7.59
2023-02-17T18:04:09.690Z,7.70
2023-02-17T18:07:12.328Z,7.69
2023-02-17T18:10:15.079Z,7.61
2023-02-17T18:13:17.593Z,7.77
2023-02-17T18:16:21.968Z,7.72
2023-02-17T18:19:24.435Z,7.92
2023-02-17T18:22:26.825Z,7.94
2023-02-17T18:25:29.238Z,7.93
2023-02-17T18:28:31.693Z,7.90
2023-02-17T18:31:34.214Z,8.13
2023-02-17T18:34:36.663Z,8.14
2023-02-17T18:37:41.182Z,8.04
2023-02-17T18:40:43.731Z,8.07
2023-02-17T18:43:46.222Z,8.05
2023-02-17T18:46:48.554Z,8.12
2023-02-17T18:49:52.406Z,8.22
2023-02-17T18:52:54.884Z,8.10
2023-02-17T18:55:57.190Z,8.22
2023-02-17T18:59:00.284Z,8.15
2023-02-17T19:02:10.439Z,8.25
2023-02-17T19:05:14.166Z,8.21
2023-02-17T19:08:16.608Z,8.10
2023-02-17T19:11:20.718Z,7.60
2023-02-17T19:14:23.134Z,7.66
2023-02-17T19:17:25.774Z,7.71
2023-02-17T19:20:29.386Z,7.70
2023-02-17T19:23:32.003Z,7.40
2023-02-17T19:26:34.570Z,7.17
2023-02-17T19:29:37.396Z,7.22
2023-02-17T19:32:40.243Z,7.13
2023-02-17T19:35:44.190Z,7.04
2023-02-17T19:38:47.729Z,7.14
2023-02-17T19:41:50.108Z,7.04
2023-02-17T19:44:52.442Z,7.03
2023-02-17T19:47:55.033Z,6.93
2023-02-17T19:51:02.830Z,7.02
2023-02-17T19:54:05.570Z,7.06
2023-02-17T19:57:08.105Z,7.07
2023-02-17T20:00:11.028Z,7.05
2023-02-17T20:03:13.283Z,7.06
2023-02-17T20:06:19.259Z,6.90
2023-02-17T20:09:23.040Z,6.76
2023-02-17T20:12:25.863Z,6.73
2023-02-17T20:15:28.323Z,6.77
2023-02-17T20:18:32.359Z,6.51
2023-02-17T20:21:38.573Z,6.51
2023-02-17T20:24:42.058Z,6.41
2023-02-17T20:27:44.702Z,6.48
2023-02-17T20:30:47.304Z,6.50
2023-02-17T20:33:49.879Z,6.40
2023-02-17T20:36:52.233Z,6.47
2023-02-17T20:39:54.710Z,6.45
2023-02-17T20:42:57.255Z,6.48
2023-02-17T20:46:00.447Z,6.57
2023-02-17T20:49:02.851Z,6.48
2023-02-17T20:52:05.872Z,6.54
2023-02-17T20:55:08.476Z,6.47
2023-02-17T20:58:12.144Z,6.50
2023-02-17T21:01:15.127Z,6.52
2023-02-17T21:04:17.533Z,6.29
2023-02-17T21:07:19.911Z,6.29
2023-02-17T21:10:25.602Z,6.44
2023-02-17T21:13:29.861Z,6.23
2023-02-17T21:16:35.875Z,6.22
2023-02-17T21:19:38.676Z,6.22
2023-02-17T21:22:41.701Z,6.25
2023-02-17T21:25:46.350Z,6.11
2023-02-17T21:28:49.003Z,6.06
2023-02-17T21:31:52.855Z,5.77
2023-02-17T21:34:56.018Z,6.02
2023-02-17T21:37:58.405Z,5.93
2023-02-17T21:41:12.022Z,6.04
2023-02-17T21:44:33.091Z,5.99
2023-02-17T21:47:35.588Z,5.96
2023-02-17T21:50:38.002Z,5.59
2023-02-17T21:53:40.708Z,5.59
2023-02-17T21:56:43.163Z,5.60
2023-02-17T21:59:45.607Z,5.53
2023-02-17T22:02:48.146Z,5.67
2023-02-17T22:05:50.938Z,5.64
2023-02-17T22:08:53.419Z,5.49
2023-02-17T22:11:55.788Z,5.84
2023-02-17T22:14:58.715Z,5.92
2023-02-17T22:18:01.463Z,5.78
2023-02-17T22:21:07.094Z,5.95
2023-02-17T22:24:09.801Z,6.14
2023-02-17T22:27:12.154Z,6.07
2023-02-17T22:30:14.654Z,6.15
2023-02-17T22:33:17.416Z,5.97
2023-02-17T22:36:22.916Z,6.03
2023-02-17T22:39:25.594Z,5.95
2023-02-17T22:42:28.946Z,6.02
2023-02-17T22:45:32.026Z,6.16
2023-02-17T22:48:36.544Z,6.21
2023-02-17T22:51:40.593Z,6.13
2023-02-17T22:54:44.202Z,6.13
2023-02-17T22:57:47.873Z,6.11
2023-02-17T23:00:50.418Z,6.13
2023-02-17T23:03:54.723Z,6.19
2023-02-17T23:06:57.404Z,6.15
2023-02-17T23:09:59.772Z,6.31
2023-02-17T23:13:02.205Z,6.08
2023-02-17T23:16:05.410Z,6.16
2023-02-17T23:19:09.711Z,6.25
2023-02-17T23:22:16.063Z,6.21
2023-02-17T23:25:18.628Z,6.15
2023-02-17T23:28:22.981Z,5.91
2023-02-17T23:31:25.532Z,6.14
2023-02-17T23:34:28.696Z,6.08
2023-02-17T23:37:31.125Z,6.07
2023-02-17T23:40:36.964Z,6.10
2023-02-17T23:43:39.375Z,6.31
2023-02-17T23:46:42.971Z,5.99
2023-02-17T23:49:45.307Z,5.94
2023-02-17T23:52:47.720Z,5.96
2023-02-17T23:55:50.080Z,6.01
2023-02-17T23:58:52.542Z,6.17
